Time;durP1;ratioP1;P1;durP2;ratioP2;P2;SDS_P1;SDS_P2;PMS_P1;PMS_P2;Temp;Humidity;BMP_temperature;BMP_pressure;BME280_temperature;BME280_humidity;BME280_pressure;Samples;Min_cycle;Max_cycle;Signal;HPM_P1;HPM_P2
2022/03/19 00:00:17;;;;;;;118.63;40.13;;;;;;;;;;4984564;28;20034;-79
2022/03/19 00:02:43;;;;;;;123.65;40.85;;;;;;;;;;5018092;28;20394;-79
2022/03/19 00:05:09;;;;;;;125.75;40.78;;;;;;;;;;4986199;28;20033;-79
2022/03/19 00:07:35;;;;;;;120.68;39.72;;;;;;;;;;5016537;28;20105;-79
2022/03/19 00:10:01;;;;;;;116.88;39.15;;;;;;;;;;5016416;28;20443;-79
2022/03/19 00:12:26;;;;;;;109.85;38.97;;;;;;;;;;5016203;28;20080;-79
2022/03/19 00:14:52;;;;;;;107.60;38.42;;;;;;;;;;5016315;28;20163;-80
2022/03/19 00:17:17;;;;;;;103.15;37.05;;;;;;;;;;5033872;28;20041;-79
2022/03/19 00:19:43;;;;;;;97.25;36.75;;;;;;;;;;5016373;28;20037;-79
2022/03/19 00:22:08;;;;;;;100.63;35.75;;;;;;;;;;5034594;28;20029;-79
2022/03/19 00:24:35;;;;;;;95.40;36.42;;;;;;;;;;5033977;28;20037;-79
2022/03/19 00:27:00;;;;;;;98.13;36.03;;;;;;;;;;5016239;28;20030;-79
2022/03/19 00:29:26;;;;;;;96.00;34.90;;;;;;;;;;5033911;28;20029;-79
2022/03/19 00:31:51;;;;;;;97.15;34.00;;;;;;;;;;5016298;28;20029;-79
2022/03/19 00:34:16;;;;;;;89.43;33.88;;;;;;;;;;5016065;28;20037;-80
2022/03/19 00:36:42;;;;;;;93.00;33.85;;;;;;;;;;5016708;28;20029;-79
2022/03/19 00:39:08;;;;;;;76.70;29.52;;;;;;;;;;5016560;28;20030;-80
2022/03/19 00:41:33;;;;;;;55.25;23.15;;;;;;;;;;5033852;28;20030;-79
2022/03/19 00:43:59;;;;;;;55.47;21.65;;;;;;;;;;5017188;28;20037;-79
2022/03/19 00:46:24;;;;;;;49.58;20.65;;;;;;;;;;5034642;28;20076;-79
2022/03/19 00:48:49;;;;;;;46.42;18.88;;;;;;;;;;5033701;28;20029;-80
2022/03/19 00:51:15;;;;;;;47.17;18.42;;;;;;;;;;5019426;28;20447;-79
2022/03/19 00:53:40;;;;;;;42.50;18.35;;;;;;;;;;5019827;28;20432;-79
2022/03/19 00:56:06;;;;;;;42.70;16.80;;;;;;;;;;5019670;28;20029;-79
2022/03/19 00:58:31;;;;;;;50.42;18.08;;;;;;;;;;5037489;28;20025;-79
2022/03/19 01:00:57;;;;;;;44.72;17.77;;;;;;;;;;5037921;28;20116;-79
2022/03/19 01:03:22;;;;;;;44.00;17.77;;;;;;;;;;5037912;28;20061;-79
2022/03/19 01:05:48;;;;;;;45.53;19.70;;;;;;;;;;5021361;28;20425;-78
2022/03/19 01:08:13;;;;;;;46.30;17.58;;;;;;;;;;5039033;28;20065;-79
2022/03/19 01:10:39;;;;;;;45.20;18.92;;;;;;;;;;5037281;28;20025;-78
2022/03/19 01:13:05;;;;;;;52.25;19.08;;;;;;;;;;5037228;28;20431;-78
2022/03/19 01:15:30;;;;;;;53.72;23.67;;;;;;;;;;5037144;28;20037;-80
2022/03/19 01:17:56;;;;;;;43.10;18.05;;;;;;;;;;5003201;28;20033;-79
2022/03/19 01:20:21;;;;;;;45.30;18.45;;;;;;;;;;5003327;28;20040;-79
2022/03/19 01:22:49;;;;;;;47.30;19.25;;;;;;;;;;5038342;28;20037;-79
2022/03/19 01:25:15;;;;;;;45.80;17.70;;;;;;;;;;5019740;28;20029;-80
2022/03/19 01:27:41;;;;;;;47.13;18.02;;;;;;;;;;4988932;28;20029;-79
2022/03/19 01:30:07;;;;;;;44.25;18.67;;;;;;;;;;5003023;28;20036;-79
2022/03/19 01:32:33;;;;;;;53.17;19.85;;;;;;;;;;5038674;28;20029;-79
2022/03/19 01:34:59;;;;;;;50.25;19.30;;;;;;;;;;5019036;28;20049;-80
2022/03/19 01:37:25;;;;;;;49.03;20.25;;;;;;;;;;5019053;28;20075;-79
2022/03/19 01:39:53;;;;;;;59.45;24.85;;;;;;;;;;5002486;28;20036;-79
2022/03/19 01:42:41;;;;;;;55.83;23.70;;;;;;;;;;5019510;28;20445;-79
2022/03/19 01:45:15;;;;;;;55.17;23.60;;;;;;;;;;5019406;28;20521;-79
2022/03/19 01:47:41;;;;;;;70.93;30.70;;;;;;;;;;5002770;28;20383;-79
2022/03/19 01:50:07;;;;;;;67.65;26.20;;;;;;;;;;5018937;28;20036;-79
2022/03/19 01:52:34;;;;;;;48.72;21.60;;;;;;;;;;5002934;28;20022;-79
2022/03/19 01:55:00;;;;;;;48.92;20.27;;;;;;;;;;5002375;28;20037;-79
2022/03/19 01:57:27;;;;;;;49.55;21.52;;;;;;;;;;5018721;28;20028;-79
2022/03/19 01:59:53;;;;;;;43.50;19.45;;;;;;;;;;4986367;28;20116;-79
2022/03/19 02:02:19;;;;;;;46.92;18.45;;;;;;;;;;5035721;28;20025;-79
2022/03/19 02:04:45;;;;;;;45.22;19.65;;;;;;;;;;5018815;28;20022;-79
2022/03/19 02:07:11;;;;;;;41.97;17.92;;;;;;;;;;5018685;28;20064;-79
2022/03/19 02:09:37;;;;;;;44.13;18.60;;;;;;;;;;5036354;28;20118;-79
2022/03/19 02:12:03;;;;;;;45.15;19.20;;;;;;;;;;5018467;28;20111;-79
2022/03/19 02:14:28;;;;;;;46.92;19.05;;;;;;;;;;5018369;28;20475;-79
2022/03/19 02:16:54;;;;;;;49.85;19.98;;;;;;;;;;5014287;28;20366;-79
2022/03/19 02:19:19;;;;;;;44.92;19.02;;;;;;;;;;5021727;28;20110;-79
2022/03/19 02:21:49;;;;;;;50.53;21.38;;;;;;;;;;5055665;28;20375;-79
2022/03/19 02:26:59;;;;;;;58.13;19.33;;;;;;;;;;5040873;28;20374;-79
2022/03/19 02:29:25;;;;;;;49.40;18.33;;;;;;;;;;5039190;28;20025;-79
2022/03/19 02:31:55;;;;;;;57.03;20.98;;;;;;;;;;5021598;28;20033;-79
2022/03/19 02:34:20;;;;;;;52.87;20.47;;;;;;;;;;5038478;28;20036;-79
2022/03/19 02:36:46;;;;;;;49.88;19.20;;;;;;;;;;5037691;28;20268;-80
2022/03/19 02:39:13;;;;;;;47.97;20.42;;;;;;;;;;5037734;28;20067;-79
2022/03/19 02:41:58;;;;;;;46.60;19.33;;;;;;;;;;5055604;28;20033;-79
2022/03/19 02:44:24;;;;;;;40.63;17.13;;;;;;;;;;5055478;28;20413;-79
2022/03/19 02:46:51;;;;;;;37.97;15.57;;;;;;;;;;5037794;28;20030;-79
2022/03/19 02:49:16;;;;;;;44.05;16.70;;;;;;;;;;5055544;28;20033;-79
2022/03/19 02:51:43;;;;;;;43.63;17.83;;;;;;;;;;5055301;28;20036;-79
2022/03/19 02:54:10;;;;;;;44.65;15.63;;;;;;;;;;5037288;28;20032;-79
2022/03/19 02:56:37;;;;;;;35.10;15.60;;;;;;;;;;5037558;28;20020;-79
2022/03/19 02:59:06;;;;;;;38.92;16.60;;;;;;;;;;5037894;28;20032;-79
2022/03/19 03:01:32;;;;;;;41.10;16.90;;;;;;;;;;5055098;28;20049;-79
2022/03/19 03:03:57;;;;;;;37.88;17.00;;;;;;;;;;5055610;28;20044;-79
2022/03/19 03:06:22;;;;;;;42.38;17.85;;;;;;;;;;5037070;28;20028;-79
2022/03/19 03:08:48;;;;;;;38.88;16.08;;;;;;;;;;5057101;28;20028;-79
2022/03/19 03:11:13;;;;;;;32.83;15.05;;;;;;;;;;5020776;28;20035;-79
2022/03/19 03:13:39;;;;;;;31.17;14.98;;;;;;;;;;5053837;28;20464;-79
2022/03/19 03:16:05;;;;;;;35.28;14.63;;;;;;;;;;5049120;28;20046;-79
2022/03/19 03:18:30;;;;;;;36.65;15.82;;;;;;;;;;5017034;28;20030;-79
2022/03/19 03:20:57;;;;;;;38.03;15.52;;;;;;;;;;5017121;28;20033;-79
2022/03/19 03:23:23;;;;;;;44.78;15.95;;;;;;;;;;5001006;28;20076;-79
2022/03/19 03:25:48;;;;;;;39.45;15.80;;;;;;;;;;5017142;28;20029;-79
2022/03/19 03:28:13;;;;;;;44.67;17.63;;;;;;;;;;5017848;28;20124;-79
2022/03/19 03:30:39;;;;;;;45.88;18.67;;;;;;;;;;5036384;28;20017;-80
2022/03/19 03:33:04;;;;;;;49.60;18.92;;;;;;;;;;5034584;28;20087;-79
2022/03/19 03:35:30;;;;;;;44.90;16.33;;;;;;;;;;5034496;28;20025;-79
2022/03/19 03:37:55;;;;;;;41.78;15.93;;;;;;;;;;5034447;28;20032;-79
2022/03/19 03:40:21;;;;;;;39.28;17.02;;;;;;;;;;5034485;28;20083;-79
2022/03/19 03:42:47;;;;;;;37.47;15.23;;;;;;;;;;5017332;28;20026;-79
2022/03/19 03:45:12;;;;;;;35.83;15.98;;;;;;;;;;5017146;28;20025;-79
2022/03/19 03:47:38;;;;;;;36.28;16.52;;;;;;;;;;5034812;28;20371;-80
2022/03/19 03:50:04;;;;;;;34.30;15.65;;;;;;;;;;5001951;28;20022;-80
2022/03/19 03:52:30;;;;;;;42.35;16.40;;;;;;;;;;5001446;28;20041;-79
2022/03/19 03:54:56;;;;;;;35.97;15.32;;;;;;;;;;4984405;28;20038;-79
2022/03/19 03:57:22;;;;;;;43.90;16.05;;;;;;;;;;4984352;28;20041;-79
2022/03/19 03:59:51;;;;;;;35.60;16.98;;;;;;;;;;4999301;28;21084;-79
2022/03/19 04:02:16;;;;;;;36.03;15.52;;;;;;;;;;5001117;28;20089;-80
2022/03/19 04:04:42;;;;;;;43.83;17.15;;;;;;;;;;4984035;28;20033;-79
2022/03/19 04:07:08;;;;;;;44.13;17.95;;;;;;;;;;4984007;28;20030;-79
2022/03/19 04:09:34;;;;;;;38.53;16.75;;;;;;;;;;5017336;28;20029;-80
2022/03/19 04:12:00;;;;;;;36.05;17.20;;;;;;;;;;5036026;28;20439;-80
2022/03/19 04:14:25;;;;;;;40.25;16.70;;;;;;;;;;5034257;28;20064;-79
2022/03/19 04:16:51;;;;;;;43.40;17.75;;;;;;;;;;5028338;28;20462;-79
2022/03/19 04:19:16;;;;;;;42.22;17.55;;;;;;;;;;5019486;28;20355;-79
2022/03/19 04:21:42;;;;;;;47.33;18.38;;;;;;;;;;5019743;28;20128;-79
2022/03/19 04:24:07;;;;;;;41.47;16.00;;;;;;;;;;5053209;28;20048;-79
2022/03/19 04:26:34;;;;;;;38.75;17.00;;;;;;;;;;5058017;28;20350;-79
2022/03/19 04:28:59;;;;;;;45.17;19.60;;;;;;;;;;5057921;28;20020;-79
2022/03/19 04:31:25;;;;;;;36.80;16.02;;;;;;;;;;5023746;28;20047;-79
2022/03/19 04:33:50;;;;;;;44.58;19.80;;;;;;;;;;5023189;28;20029;-79
2022/03/19 04:36:30;;;;;;;43.63;17.42;;;;;;;;;;5023358;28;20029;-80
2022/03/19 04:39:06;;;;;;;41.17;16.85;;;;;;;;;;5042298;28;20376;-78
2022/03/19 04:41:32;;;;;;;40.55;18.60;;;;;;;;;;5039963;28;20040;-79
2022/03/19 04:43:58;;;;;;;48.63;18.65;;;;;;;;;;5040121;28;20175;-79
2022/03/19 04:46:24;;;;;;;49.13;19.10;;;;;;;;;;5006951;28;20127;-79
2022/03/19 04:48:50;;;;;;;47.25;18.98;;;;;;;;;;5023152;28;20389;-78
2022/03/19 04:51:20;;;;;;;60.70;22.33;;;;;;;;;;5024353;28;20119;-79
2022/03/19 04:53:50;;;;;;;52.85;22.23;;;;;;;;;;5040865;28;20064;-79
2022/03/19 04:56:17;;;;;;;63.47;27.65;;;;;;;;;;5008239;28;20032;-79
2022/03/19 04:58:42;;;;;;;62.20;27.05;;;;;;;;;;5007092;28;20029;-79
2022/03/19 05:01:08;;;;;;;71.32;26.20;;;;;;;;;;5023187;28;20378;-80
2022/03/19 05:03:33;;;;;;;66.28;25.30;;;;;;;;;;5023242;28;20028;-79
2022/03/19 05:05:59;;;;;;;61.50;24.77;;;;;;;;;;5006858;28;20036;-79
2022/03/19 05:08:24;;;;;;;53.67;23.52;;;;;;;;;;5022950;28;20078;-78
2022/03/19 05:13:33;;;;;;;58.15;27.33;;;;;;;;;;5042263;28;20542;-78
2022/03/19 05:15:59;;;;;;;62.35;26.50;;;;;;;;;;5019631;28;20136;-79
2022/03/19 05:18:25;;;;;;;72.57;30.08;;;;;;;;;;5019557;28;20477;-79
2022/03/19 05:20:50;;;;;;;76.80;29.58;;;;;;;;;;5003394;28;20021;-78
2022/03/19 05:23:16;;;;;;;80.90;29.63;;;;;;;;;;5002975;28;20026;-77
2022/03/19 05:25:41;;;;;;;85.93;27.52;;;;;;;;;;5019282;28;20065;-78
2022/03/19 05:28:07;;;;;;;74.15;27.17;;;;;;;;;;5019472;28;20025;-79
2022/03/19 05:30:32;;;;;;;73.70;27.13;;;;;;;;;;5019116;28;20076;-80
2022/03/19 05:32:58;;;;;;;81.10;30.00;;;;;;;;;;4988999;28;20029;-79
2022/03/19 05:35:23;;;;;;;70.40;26.58;;;;;;;;;;5020477;28;20051;-80
2022/03/19 05:37:49;;;;;;;52.55;23.75;;;;;;;;;;5036064;28;20021;-80
2022/03/19 05:40:15;;;;;;;58.55;24.27;;;;;;;;;;5003194;28;20037;-79
2022/03/19 05:42:40;;;;;;;56.83;25.17;;;;;;;;;;4986744;28;20065;-79
2022/03/19 05:45:06;;;;;;;61.90;25.02;;;;;;;;;;5002370;28;20139;-80
2022/03/19 05:47:31;;;;;;;56.53;25.15;;;;;;;;;;5018883;28;20029;-80
2022/03/19 05:49:57;;;;;;;64.90;24.10;;;;;;;;;;5018889;28;20029;-79
2022/03/19 05:52:23;;;;;;;54.88;22.25;;;;;;;;;;5018706;28;20509;-80
2022/03/19 05:54:48;;;;;;;63.10;23.60;;;;;;;;;;5021603;28;20030;-80
2022/03/19 05:57:13;;;;;;;55.10;23.15;;;;;;;;;;5037066;28;20052;-79
2022/03/19 05:59:39;;;;;;;60.55;24.63;;;;;;;;;;5002163;28;20378;-79
2022/03/19 06:02:06;;;;;;;67.47;23.88;;;;;;;;;;5035176;28;20029;-79
2022/03/19 06:04:33;;;;;;;60.15;23.63;;;;;;;;;;5002660;28;20442;-79
2022/03/19 06:06:58;;;;;;;62.40;25.40;;;;;;;;;;5018760;28;20429;-80
2022/03/19 06:09:24;;;;;;;57.38;23.95;;;;;;;;;;5002231;28;20076;-79
2022/03/19 06:11:49;;;;;;;64.60;25.52;;;;;;;;;;5018438;28;20018;-80
2022/03/19 06:14:15;;;;;;;62.92;24.48;;;;;;;;;;5035811;28;20033;-80
2022/03/19 06:16:40;;;;;;;64.15;23.88;;;;;;;;;;5026691;28;20483;-79
2022/03/19 06:19:06;;;;;;;64.68;24.30;;;;;;;;;;5054773;28;20120;-80
2022/03/19 06:21:31;;;;;;;58.10;23.48;;;;;;;;;;5038370;28;20029;-81
2022/03/19 06:23:57;;;;;;;49.25;20.90;;;;;;;;;;5055756;28;20477;-79
2022/03/19 06:26:23;;;;;;;41.63;17.00;;;;;;;;;;5055767;28;20025;-80
2022/03/19 06:28:49;;;;;;;62.80;22.58;;;;;;;;;;5055492;28;20021;-79
2022/03/19 06:31:14;;;;;;;55.97;24.10;;;;;;;;;;5038839;28;20024;-79
2022/03/19 06:33:41;;;;;;;54.60;18.98;;;;;;;;;;5021911;28;20087;-79
2022/03/19 06:38:50;;;;;;;53.50;20.23;;;;;;;;;;5057350;28;20067;-81
2022/03/19 06:41:15;;;;;;;80.60;29.05;;;;;;;;;;5041622;28;20029;-81
2022/03/19 06:43:43;;;;;;;83.93;30.58;;;;;;;;;;5038943;28;20095;-80
2022/03/19 06:46:08;;;;;;;103.10;37.95;;;;;;;;;;5055717;28;20028;-81
2022/03/19 06:48:34;;;;;;;71.30;27.70;;;;;;;;;;5055582;28;20507;-81
2022/03/19 06:50:59;;;;;;;73.35;29.63;;;;;;;;;;5055290;28;20029;-80
2022/03/19 06:53:24;;;;;;;77.60;32.17;;;;;;;;;;5004522;28;20139;-77
2022/03/19 06:55:51;;;;;;;100.63;37.38;;;;;;;;;;5021251;28;20070;-78
2022/03/19 06:58:16;;;;;;;109.97;37.08;;;;;;;;;;5020939;28;20434;-81
2022/03/19 07:00:42;;;;;;;81.68;34.15;;;;;;;;;;5020892;28;20043;-78
2022/03/19 07:03:07;;;;;;;76.50;32.78;;;;;;;;;;5037180;28;20100;-78
2022/03/19 07:05:33;;;;;;;66.35;29.23;;;;;;;;;;5055009;28;20043;-78
2022/03/19 07:07:59;;;;;;;64.68;30.23;;;;;;;;;;5055035;28;20052;-77
2022/03/19 07:10:25;;;;;;;59.58;29.15;;;;;;;;;;5037081;28;20430;-81
2022/03/19 07:12:55;;;;;;;67.30;30.48;;;;;;;;;;5036892;28;20035;-77
2022/03/19 07:15:24;;;;;;;56.80;27.30;;;;;;;;;;5020657;28;20095;-78
2022/03/19 07:17:50;;;;;;;57.40;25.67;;;;;;;;;;5034172;28;20048;-78
2022/03/19 07:20:16;;;;;;;59.88;29.83;;;;;;;;;;5034879;28;20398;-78
2022/03/19 07:22:50;;;;;;;58.13;28.38;;;;;;;;;;5033844;28;20056;-79
2022/03/19 07:25:16;;;;;;;64.25;30.88;;;;;;;;;;5033510;28;20045;-79
2022/03/19 07:27:41;;;;;;;63.38;28.80;;;;;;;;;;5033340;28;20032;-78
2022/03/19 07:30:07;;;;;;;69.25;29.52;;;;;;;;;;5017285;28;20443;-78
2022/03/19 07:32:33;;;;;;;54.88;28.80;;;;;;;;;;5016871;28;20057;-77
2022/03/19 07:35:00;;;;;;;133.63;57.40;;;;;;;;;;5017032;28;20437;-78
2022/03/19 07:37:26;;;;;;;70.35;31.67;;;;;;;;;;5034242;28;20116;-79
2022/03/19 07:39:51;;;;;;;62.72;27.70;;;;;;;;;;5043470;28;20029;-78
2022/03/19 07:42:17;;;;;;;54.95;28.13;;;;;;;;;;5025671;28;20033;-79
2022/03/19 07:44:42;;;;;;;53.78;26.58;;;;;;;;;;5023546;28;20040;-79
2022/03/19 07:47:07;;;;;;;54.00;28.10;;;;;;;;;;5024192;28;20030;-79
2022/03/19 07:49:33;;;;;;;94.57;42.72;;;;;;;;;;5038744;28;20087;-79
2022/03/19 07:52:05;;;;;;;50.35;26.40;;;;;;;;;;5041968;28;20029;-79
2022/03/19 07:54:30;;;;;;;51.95;26.25;;;;;;;;;;5036636;28;20033;-78
2022/03/19 07:56:56;;;;;;;44.70;24.58;;;;;;;;;;5049953;28;20032;-79
2022/03/19 07:59:21;;;;;;;49.92;23.10;;;;;;;;;;5063452;28;20041;-80
2022/03/19 08:01:48;;;;;;;40.45;22.23;;;;;;;;;;5063933;28;20052;-79
2022/03/19 08:04:15;;;;;;;41.58;22.63;;;;;;;;;;5048537;28;20033;-79
2022/03/19 08:06:40;;;;;;;45.53;22.27;;;;;;;;;;5041767;28;20439;-80
2022/03/19 08:09:07;;;;;;;47.88;23.42;;;;;;;;;;5049636;28;20036;-80
2022/03/19 08:11:33;;;;;;;53.22;25.95;;;;;;;;;;5062113;28;20025;-79
2022/03/19 08:13:59;;;;;;;46.00;24.13;;;;;;;;;;5022909;28;20036;-79
2022/03/19 08:16:24;;;;;;;49.42;26.23;;;;;;;;;;5033007;28;20049;-79
2022/03/19 08:18:50;;;;;;;48.40;25.42;;;;;;;;;;5023400;28;20049;-80
2022/03/19 08:21:15;;;;;;;48.65;24.73;;;;;;;;;;5041687;28;20018;-81
2022/03/19 08:23:41;;;;;;;49.03;24.15;;;;;;;;;;5038952;28;20357;-80
2022/03/19 08:26:07;;;;;;;45.65;23.52;;;;;;;;;;5040629;28;20029;-81
2022/03/19 08:28:32;;;;;;;54.17;25.73;;;;;;;;;;5050548;28;20128;-81
2022/03/19 08:30:58;;;;;;;44.42;23.70;;;;;;;;;;5048816;28;20022;-81
2022/03/19 08:33:25;;;;;;;40.38;21.45;;;;;;;;;;5051579;28;20021;-82
2022/03/19 08:35:50;;;;;;;42.83;22.85;;;;;;;;;;5040411;28;20034;-81
2022/03/19 08:41:00;;;;;;;42.88;21.20;;;;;;;;;;5041028;28;20083;-82
2022/03/19 08:43:27;;;;;;;41.58;21.98;;;;;;;;;;5034370;28;20033;-82
2022/03/19 08:45:53;;;;;;;43.10;22.30;;;;;;;;;;5035255;28;20040;-81
2022/03/19 08:48:19;;;;;;;35.35;17.10;;;;;;;;;;5044963;28;20101;-79
2022/03/19 08:50:45;;;;;;;44.15;20.88;;;;;;;;;;5061466;28;20041;-79
2022/03/19 08:53:15;;;;;;;39.67;19.85;;;;;;;;;;5041809;28;20339;-81
2022/03/19 08:55:41;;;;;;;41.00;22.33;;;;;;;;;;5042004;28;20447;-80
2022/03/19 08:58:06;;;;;;;40.75;21.58;;;;;;;;;;5044219;28;20032;-80
2022/03/19 09:00:32;;;;;;;35.63;18.98;;;;;;;;;;5041642;28;20049;-79
2022/03/19 09:02:57;;;;;;;31.65;18.05;;;;;;;;;;5037244;28;20084;-80
2022/03/19 09:05:23;;;;;;;35.95;18.92;;;;;;;;;;5048158;28;20060;-81
2022/03/19 09:07:49;;;;;;;37.05;19.42;;;;;;;;;;5053552;28;20041;-79
2022/03/19 09:10:14;;;;;;;38.78;19.05;;;;;;;;;;5034432;28;20029;-80
2022/03/19 09:12:40;;;;;;;39.33;19.88;;;;;;;;;;5046057;28;20359;-79
2022/03/19 09:15:09;;;;;;;41.35;21.55;;;;;;;;;;5045406;28;20104;-80
2022/03/19 09:17:38;;;;;;;37.88;19.73;;;;;;;;;;5066400;28;20374;-80
2022/03/19 09:20:04;;;;;;;45.20;22.40;;;;;;;;;;5050633;28;20020;-78
2022/03/19 09:22:30;;;;;;;38.85;21.50;;;;;;;;;;5047168;28;20078;-81
2022/03/19 09:24:55;;;;;;;44.30;22.17;;;;;;;;;;5056950;28;20318;-81
2022/03/19 09:27:22;;;;;;;41.88;22.02;;;;;;;;;;5063304;28;20036;-79
2022/03/19 09:29:47;;;;;;;53.80;23.80;;;;;;;;;;5052307;28;20445;-79
2022/03/19 09:32:13;;;;;;;48.10;24.17;;;;;;;;;;5065807;28;20039;-81
2022/03/19 09:34:39;;;;;;;61.33;26.98;;;;;;;;;;5070037;28;20044;-80
2022/03/19 09:37:04;;;;;;;62.72;27.83;;;;;;;;;;5038055;28;20098;-79
2022/03/19 09:39:30;;;;;;;53.03;25.40;;;;;;;;;;5043048;28;20024;-81
2022/03/19 09:41:55;;;;;;;46.90;22.10;;;;;;;;;;5064758;28;20103;-80
2022/03/19 09:44:25;;;;;;;53.58;23.30;;;;;;;;;;5085924;28;20036;-80
2022/03/19 09:46:51;;;;;;;54.53;24.05;;;;;;;;;;5074377;28;20020;-81
2022/03/19 09:49:16;;;;;;;54.85;24.77;;;;;;;;;;5071123;28;20016;-80
2022/03/19 09:51:44;;;;;;;51.15;22.77;;;;;;;;;;5091482;28;20032;-80
2022/03/19 09:54:10;;;;;;;59.88;26.80;;;;;;;;;;5067867;28;20131;-81
2022/03/19 09:56:36;;;;;;;50.50;23.02;;;;;;;;;;5080139;28;20024;-81
2022/03/19 09:59:02;;;;;;;49.40;23.33;;;;;;;;;;5043000;28;20028;-79
2022/03/19 10:01:30;;;;;;;82.78;27.58;;;;;;;;;;5068753;28;20638;-80
2022/03/19 10:04:00;;;;;;;52.78;20.73;;;;;;;;;;5041955;28;20032;-80
2022/03/19 10:09:09;;;;;;;70.22;22.95;;;;;;;;;;5074668;28;20364;-80
2022/03/19 10:11:35;;;;;;;43.60;20.83;;;;;;;;;;5028535;28;20025;-80
2022/03/19 10:14:04;;;;;;;43.00;19.98;;;;;;;;;;5053674;28;20029;-80
2022/03/19 10:16:30;;;;;;;74.35;23.08;;;;;;;;;;5043714;28;20067;-79
2022/03/19 10:19:00;;;;;;;34.88;16.67;;;;;;;;;;5041989;28;20437;-80
2022/03/19 10:21:26;;;;;;;35.75;16.73;;;;;;;;;;5051229;28;20029;-79
2022/03/19 10:23:52;;;;;;;39.38;18.38;;;;;;;;;;5049210;28;20038;-79
2022/03/19 10:26:24;;;;;;;69.07;24.02;;;;;;;;;;5086574;28;20064;-81
2022/03/19 10:29:03;;;;;;;50.30;21.73;;;;;;;;;;5065083;28;20008;-80
2022/03/19 10:31:37;;;;;;;50.30;21.77;;;;;;;;;;5046561;28;20460;-80
2022/03/19 10:34:03;;;;;;;46.28;20.63;;;;;;;;;;5045953;28;20021;-81
2022/03/19 10:36:38;;;;;;;51.25;22.10;;;;;;;;;;5055298;28;20024;-79
2022/03/19 10:39:18;;;;;;;37.63;17.70;;;;;;;;;;5061874;28;20024;-81
2022/03/19 10:41:43;;;;;;;35.42;17.60;;;;;;;;;;5025591;28;20060;-79
2022/03/19 10:44:16;;;;;;;40.83;18.70;;;;;;;;;;5058672;28;20031;-81
2022/03/19 10:46:43;;;;;;;40.95;19.38;;;;;;;;;;5044045;28;20123;-81
2022/03/19 10:49:13;;;;;;;43.67;18.52;;;;;;;;;;5048167;28;20030;-80
2022/03/19 10:51:40;;;;;;;38.95;17.35;;;;;;;;;;5061040;28;20024;-79
2022/03/19 10:54:06;;;;;;;43.75;18.20;;;;;;;;;;5060815;28;20089;-80
2022/03/19 10:56:32;;;;;;;35.20;17.55;;;;;;;;;;5063920;28;20082;-81
2022/03/19 10:58:59;;;;;;;39.00;19.13;;;;;;;;;;5058882;28;20020;-81
2022/03/19 11:01:26;;;;;;;38.03;19.38;;;;;;;;;;5076044;28;20444;-81
2022/03/19 11:03:51;;;;;;;33.15;17.77;;;;;;;;;;5044208;28;20028;-80
2022/03/19 11:06:17;;;;;;;35.67;17.70;;;;;;;;;;5059375;28;20032;-80
2022/03/19 11:08:43;;;;;;;37.78;18.10;;;;;;;;;;5042097;28;20134;-80
2022/03/19 11:11:12;;;;;;;36.30;18.20;;;;;;;;;;5059917;28;20365;-80
2022/03/19 11:13:42;;;;;;;35.15;16.52;;;;;;;;;;5074890;28;20468;-80
2022/03/19 11:16:09;;;;;;;40.97;16.37;;;;;;;;;;5026316;28;20450;-80
2022/03/19 11:18:34;;;;;;;42.50;18.75;;;;;;;;;;5041253;28;20458;-80
2022/03/19 11:21:00;;;;;;;33.00;15.68;;;;;;;;;;5028519;28;20027;-80
2022/03/19 11:23:28;;;;;;;40.97;18.05;;;;;;;;;;5051288;28;20020;-80
2022/03/19 11:25:54;;;;;;;33.58;15.50;;;;;;;;;;5049497;28;20430;-81
2022/03/19 11:28:20;;;;;;;30.80;16.25;;;;;;;;;;5048197;28;20040;-80
2022/03/19 11:30:59;;;;;;;37.50;18.00;;;;;;;;;;5069281;28;20032;-79
2022/03/19 11:33:27;;;;;;;45.03;21.40;;;;;;;;;;5066930;28;20032;-79
2022/03/19 11:36:04;;;;;;;35.95;15.98;;;;;;;;;;5066925;28;20017;-80
2022/03/19 11:38:30;;;;;;;32.80;13.90;;;;;;;;;;5066702;28;20347;-80
2022/03/19 11:40:56;;;;;;;35.75;16.33;;;;;;;;;;5058477;28;20433;-80
2022/03/19 11:43:25;;;;;;;34.17;15.23;;;;;;;;;;5061761;28;20389;-80
2022/03/19 11:46:04;;;;;;;34.38;16.27;;;;;;;;;;5086140;28;20131;-80
2022/03/19 11:48:36;;;;;;;33.33;14.18;;;;;;;;;;5041174;28;20029;-80
2022/03/19 11:51:25;;;;;;;32.70;15.57;;;;;;;;;;5074420;28;20032;-80
2022/03/19 11:53:54;;;;;;;33.45;15.60;;;;;;;;;;5074215;28;20062;-81
2022/03/19 11:56:28;;;;;;;36.63;15.52;;;;;;;;;;5074655;28;20047;-79
2022/03/19 11:58:53;;;;;;;36.38;17.45;;;;;;;;;;5040462;28;20420;-79
2022/03/19 12:01:48;;;;;;;40.83;18.20;;;;;;;;;;5040031;28;20024;-78
2022/03/19 12:04:14;;;;;;;33.38;13.70;;;;;;;;;;5056475;28;20123;-81
2022/03/19 12:06:52;;;;;;;33.70;15.32;;;;;;;;;;5074268;28;20476;-79
2022/03/19 12:09:18;;;;;;;35.47;16.05;;;;;;;;;;5075592;28;20441;-81
2022/03/19 12:12:11;;;;;;;29.17;14.10;;;;;;;;;;5056369;28;20027;-80
2022/03/19 12:14:37;;;;;;;35.78;17.25;;;;;;;;;;5074903;28;20113;-81
2022/03/19 12:17:23;;;;;;;37.20;16.45;;;;;;;;;;5073950;28;20078;-81
2022/03/19 12:20:01;;;;;;;42.83;16.80;;;;;;;;;;5074871;28;20165;-80
2022/03/19 12:22:33;;;;;;;31.13;13.57;;;;;;;;;;5057390;28;20385;-80
2022/03/19 12:25:19;;;;;;;36.60;15.63;;;;;;;;;;5074005;28;20024;-79
2022/03/19 12:27:54;;;;;;;34.92;16.40;;;;;;;;;;5073914;28;20031;-80
2022/03/19 12:30:21;;;;;;;41.50;16.85;;;;;;;;;;5074560;28;20373;-79
2022/03/19 12:32:56;;;;;;;38.67;16.00;;;;;;;;;;5055998;28;20024;-80
2022/03/19 12:35:22;;;;;;;41.15;16.40;;;;;;;;;;5056660;28;20033;-80
2022/03/19 12:37:55;;;;;;;56.25;17.88;;;;;;;;;;5056890;28;20056;-80
2022/03/19 12:40:25;;;;;;;44.35;17.38;;;;;;;;;;5058715;28;20366;-79
2022/03/19 12:42:55;;;;;;;48.03;18.35;;;;;;;;;;5074222;28;20070;-80
2022/03/19 12:45:35;;;;;;;31.15;13.18;;;;;;;;;;5073665;28;20174;-80
2022/03/19 12:48:01;;;;;;;44.80;16.80;;;;;;;;;;5077697;28;20509;-80
2022/03/19 12:50:26;;;;;;;44.55;18.65;;;;;;;;;;5044587;28;20052;-79
2022/03/19 12:52:52;;;;;;;38.67;16.75;;;;;;;;;;5061140;28;20032;-80
2022/03/19 12:55:20;;;;;;;47.80;18.17;;;;;;;;;;5077731;28;20182;-80
2022/03/19 12:57:59;;;;;;;41.00;15.75;;;;;;;;;;5078533;28;20035;-80
2022/03/19 13:00:25;;;;;;;39.17;16.45;;;;;;;;;;5044373;28;20035;-79
2022/03/19 13:02:57;;;;;;;37.05;15.27;;;;;;;;;;5043653;28;20032;-82
2022/03/19 13:05:23;;;;;;;35.97;15.50;;;;;;;;;;5077718;28;20051;-82
2022/03/19 13:08:02;;;;;;;33.35;14.43;;;;;;;;;;5060010;28;20365;-81
2022/03/19 13:10:28;;;;;;;34.03;14.18;;;;;;;;;;5060793;28;20036;-80
2022/03/19 13:13:07;;;;;;;31.25;13.05;;;;;;;;;;5077442;28;20028;-80
2022/03/19 13:15:33;;;;;;;29.77;15.20;;;;;;;;;;5060177;28;20450;-81
2022/03/19 13:17:59;;;;;;;42.97;16.02;;;;;;;;;;5059528;28;20076;-81
2022/03/19 13:20:25;;;;;;;40.17;17.17;;;;;;;;;;5042913;28;20029;-82
2022/03/19 13:22:57;;;;;;;48.72;19.67;;;;;;;;;;5042970;28;20030;-81
2022/03/19 13:25:25;;;;;;;51.05;17.33;;;;;;;;;;5077128;28;20520;-81
2022/03/19 13:27:50;;;;;;;42.78;17.65;;;;;;;;;;5079703;28;20063;-81
2022/03/19 13:30:16;;;;;;;33.75;15.73;;;;;;;;;;5061391;28;20369;-81
2022/03/19 13:32:43;;;;;;;34.78;16.45;;;;;;;;;;5081648;28;20216;-81
2022/03/19 13:35:09;;;;;;;37.92;15.27;;;;;;;;;;5068048;28;20033;-80
2022/03/19 13:37:36;;;;;;;39.97;17.60;;;;;;;;;;5087940;28;20024;-81
2022/03/19 13:40:04;;;;;;;34.17;14.30;;;;;;;;;;5068999;28;20461;-81
2022/03/19 13:42:30;;;;;;;43.42;19.65;;;;;;;;;;5048999;28;20028;-81
2022/03/19 13:45:07;;;;;;;39.13;19.00;;;;;;;;;;5048844;28;20020;-81
2022/03/19 13:47:46;;;;;;;37.53;17.10;;;;;;;;;;5082106;28;20468;-81
2022/03/19 13:50:14;;;;;;;39.58;18.73;;;;;;;;;;5060860;28;20027;-80
2022/03/19 13:52:43;;;;;;;38.65;18.02;;;;;;;;;;5059859;28;20017;-80
2022/03/19 13:55:12;;;;;;;35.03;16.80;;;;;;;;;;5080188;28;20124;-81
2022/03/19 13:57:39;;;;;;;45.05;18.67;;;;;;;;;;5075451;28;20105;-81
2022/03/19 14:00:22;;;;;;;43.70;18.23;;;;;;;;;;5058488;28;20043;-82
2022/03/19 14:02:59;;;;;;;42.08;18.00;;;;;;;;;;5075429;28;20146;-81
2022/03/19 14:05:26;;;;;;;41.75;17.48;;;;;;;;;;5058375;28;20131;-81
2022/03/19 14:07:57;;;;;;;48.88;18.23;;;;;;;;;;5076408;28;20029;-80
2022/03/19 14:10:24;;;;;;;36.95;17.13;;;;;;;;;;5058828;28;20027;-81
2022/03/19 14:13:06;;;;;;;46.30;17.58;;;;;;;;;;5041608;28;20453;-81
2022/03/19 14:15:42;;;;;;;45.80;17.08;;;;;;;;;;5062656;28;20036;-81
2022/03/19 14:18:08;;;;;;;47.60;18.73;;;;;;;;;;5058295;28;20090;-82
2022/03/19 14:20:35;;;;;;;40.05;17.13;;;;;;;;;;5058193;28;20334;-79
2022/03/19 14:23:01;;;;;;;36.70;17.33;;;;;;;;;;5041498;28;20436;-81
2022/03/19 14:25:26;;;;;;;45.38;17.77;;;;;;;;;;5042201;28;20139;-81
2022/03/19 14:28:03;;;;;;;42.65;17.42;;;;;;;;;;5058190;28;20028;-80
2022/03/19 14:30:30;;;;;;;41.67;17.52;;;;;;;;;;5041413;28;20431;-81